createdAt,value
2018-12-21T00:02:05.020Z,6.90
2018-12-21T00:07:24.170Z,6.90
2018-12-21T00:10:04.696Z,6.90
2018-12-21T00:12:40.145Z,6.90
2018-12-21T00:15:17.669Z,6.90
2018-12-21T00:17:51.977Z,6.90
2018-12-21T00:20:26.505Z,6.90
2018-12-21T00:23:01.317Z,6.90
2018-12-21T00:25:36.721Z,6.90
2018-12-21T00:28:12.933Z,6.90
2018-12-21T00:30:47.148Z,6.90
2018-12-21T00:33:27.025Z,6.90
2018-12-21T00:36:07.114Z,6.90
2018-12-21T00:38:47.122Z,6.90
2018-12-21T00:41:21.367Z,6.90
2018-12-21T00:44:01.129Z,6.90
2018-12-21T00:46:41.392Z,6.80
2018-12-21T00:49:16.200Z,6.80
2018-12-21T00:51:51.939Z,6.90
2018-12-21T00:54:27.443Z,6.80
2018-12-21T00:57:02.011Z,6.80
2018-12-21T00:59:36.945Z,6.80
2018-12-21T01:02:12.097Z,6.80
2018-12-21T01:04:47.678Z,6.80
2018-12-21T01:07:22.311Z,6.80
2018-12-21T01:09:57.674Z,6.80
2018-12-21T01:12:33.074Z,6.90
2018-12-21T01:15:08.093Z,6.90
2018-12-21T01:17:43.135Z,6.90
2018-12-21T01:20:19.540Z,6.90
2018-12-21T01:22:54.759Z,7.00
2018-12-21T01:25:29.421Z,7.00
2018-12-21T01:28:05.065Z,7.00
2018-12-21T01:30:39.363Z,7.10
2018-12-21T01:33:14.943Z,7.10
2018-12-21T01:35:51.126Z,7.10
2018-12-21T01:38:25.653Z,7.10
2018-12-21T01:41:03.387Z,7.00
2018-12-21T01:43:38.070Z,6.90
2018-12-21T01:46:12.655Z,6.90
2018-12-21T01:48:47.263Z,6.80
2018-12-21T01:51:21.718Z,6.70
2018-12-21T01:53:56.109Z,6.70
2018-12-21T01:56:30.865Z,6.60
2018-12-21T01:59:12.996Z,6.50
2018-12-21T02:01:47.895Z,6.50
2018-12-21T02:04:22.711Z,6.50
2018-12-21T02:06:57.236Z,6.40
2018-12-21T02:09:31.951Z,6.40
2018-12-21T02:12:06.775Z,6.40
2018-12-21T02:14:42.418Z,6.30
2018-12-21T02:17:16.827Z,6.30
2018-12-21T02:19:51.442Z,6.30
2018-12-21T02:22:26.971Z,6.30
2018-12-21T02:25:01.296Z,6.30
2018-12-21T02:27:36.728Z,6.30
2018-12-21T02:30:11.599Z,6.20
2018-12-21T02:32:46.183Z,6.30
2018-12-21T02:35:21.275Z,6.20
2018-12-21T02:37:57.020Z,6.20
2018-12-21T02:40:31.749Z,6.20
2018-12-21T02:43:07.364Z,6.20
2018-12-21T02:45:42.886Z,6.20
2018-12-21T02:48:18.308Z,6.20
2018-12-21T02:50:53.890Z,6.20
2018-12-21T02:53:29.855Z,6.20
2018-12-21T02:56:04.295Z,6.20
2018-12-21T02:58:40.216Z,6.20
2018-12-21T03:01:15.470Z,6.30
2018-12-21T03:03:50.506Z,6.20
2018-12-21T03:06:25.490Z,6.30
2018-12-21T03:09:00.515Z,6.30
2018-12-21T03:11:35.589Z,6.30
2018-12-21T03:14:10.292Z,6.20
2018-12-21T03:16:50.308Z,6.20
2018-12-21T03:22:14.615Z,6.20
2018-12-21T03:24:45.067Z,6.20
2018-12-21T03:27:21.036Z,6.20
2018-12-21T03:29:55.436Z,6.20
2018-12-21T03:32:30.678Z,6.20
2018-12-21T03:35:05.935Z,6.20
2018-12-21T03:37:40.759Z,6.30
2018-12-21T03:40:15.700Z,6.20
2018-12-21T03:42:54.734Z,6.20
2018-12-21T03:45:29.868Z,6.30
2018-12-21T03:48:04.718Z,6.30
2018-12-21T03:50:39.802Z,6.30
2018-12-21T03:53:14.380Z,6.30
2018-12-21T03:55:50.070Z,6.30
2018-12-21T03:58:24.906Z,6.20
2018-12-21T04:00:59.667Z,6.20
2018-12-21T04:03:38.881Z,6.30
2018-12-21T04:06:14.228Z,6.20
2018-12-21T04:08:49.804Z,6.20
2018-12-21T04:11:24.503Z,6.20
2018-12-21T04:13:59.470Z,6.20
2018-12-21T04:16:34.549Z,6.20
2018-12-21T04:19:09.412Z,6.20
2018-12-21T04:21:44.222Z,6.20
2018-12-21T04:24:18.779Z,6.20
2018-12-21T04:26:53.296Z,6.20
2018-12-21T04:29:27.959Z,6.20
2018-12-21T04:32:03.857Z,6.20
2018-12-21T04:34:39.115Z,6.20
2018-12-21T04:37:15.431Z,6.20
2018-12-21T04:39:51.787Z,6.20
2018-12-21T04:42:27.187Z,6.20
2018-12-21T04:45:01.597Z,6.20
2018-12-21T04:47:37.616Z,6.20
2018-12-21T04:50:12.387Z,6.20
2018-12-21T04:52:46.797Z,6.20
2018-12-21T04:55:21.763Z,6.20
2018-12-21T04:57:57.033Z,6.20
2018-12-21T05:00:32.710Z,6.20
2018-12-21T05:03:07.144Z,6.20
2018-12-21T05:05:43.098Z,6.20
2018-12-21T05:08:23.083Z,6.20
2018-12-21T05:10:59.017Z,6.20
2018-12-21T05:13:33.742Z,6.30
2018-12-21T05:16:09.151Z,6.30
2018-12-21T05:18:45.752Z,6.30
2018-12-21T05:21:21.384Z,6.30
2018-12-21T05:23:56.518Z,6.30
2018-12-21T05:26:31.977Z,6.30
2018-12-21T05:29:06.697Z,6.30
2018-12-21T05:31:41.504Z,6.30
2018-12-21T05:34:16.117Z,6.30
2018-12-21T05:36:50.816Z,6.20
2018-12-21T05:39:25.967Z,6.20
2018-12-21T05:42:00.589Z,6.20
2018-12-21T05:44:35.678Z,6.20
2018-12-21T05:47:11.067Z,6.20
2018-12-21T05:49:46.953Z,6.10
2018-12-21T05:52:21.722Z,6.10
2018-12-21T05:54:57.601Z,6.10
2018-12-21T05:57:32.612Z,6.10
2018-12-21T06:00:26.772Z,6.10
2018-12-21T06:03:01.942Z,6.10
2018-12-21T06:05:38.009Z,6.00
2018-12-21T06:08:12.976Z,6.00
2018-12-21T06:10:49.215Z,6.00
2018-12-21T06:13:24.251Z,6.00
2018-12-21T06:15:59.255Z,6.00
2018-12-21T06:18:35.160Z,6.00
2018-12-21T06:21:17.008Z,6.00
2018-12-21T06:23:51.811Z,6.00
2018-12-21T06:26:26.940Z,6.10
2018-12-21T06:29:01.797Z,6.10
2018-12-21T06:31:37.208Z,6.10
2018-12-21T06:34:11.824Z,6.20
2018-12-21T06:36:47.195Z,6.20
2018-12-21T06:39:25.019Z,6.20
2018-12-21T06:42:00.835Z,6.20
2018-12-21T06:44:35.703Z,6.30
2018-12-21T06:47:10.155Z,6.30
2018-12-21T06:49:45.397Z,6.30
2018-12-21T06:52:20.675Z,6.40
2018-12-21T06:54:55.711Z,6.40
2018-12-21T06:57:31.490Z,6.40
2018-12-21T07:00:08.145Z,6.40
2018-12-21T07:02:43.491Z,6.50
2018-12-21T07:05:18.523Z,6.50
2018-12-21T07:07:52.711Z,6.60
2018-12-21T07:10:27.468Z,6.70
2018-12-21T07:13:01.882Z,6.60
2018-12-21T07:15:36.699Z,6.70
2018-12-21T07:18:11.927Z,6.70
2018-12-21T07:20:46.352Z,6.70
2018-12-21T07:25:58.170Z,6.80
2018-12-21T07:28:42.914Z,6.80
2018-12-21T07:31:17.909Z,6.80
2018-12-21T07:33:54.147Z,6.90
2018-12-21T07:36:29.603Z,6.90
2018-12-21T07:39:11.235Z,6.90
2018-12-21T07:45:06.190Z,7.00
2018-12-21T07:48:05.787Z,7.10
2018-12-21T07:53:47.641Z,7.20
2018-12-21T07:56:32.847Z,7.20
2018-12-21T07:59:08.643Z,7.20
2018-12-21T08:01:53.014Z,7.20
2018-12-21T08:04:32.216Z,7.10
2018-12-21T08:07:20.266Z,7.10
2018-12-21T08:10:08.648Z,7.00
2018-12-21T08:12:51.116Z,7.00
2018-12-21T08:15:27.665Z,7.00
2018-12-21T08:18:05.700Z,7.00
2018-12-21T08:20:41.741Z,7.00
2018-12-21T08:23:21.930Z,7.00
2018-12-21T08:26:03.242Z,7.00
2018-12-21T08:28:39.754Z,7.00
2018-12-21T08:31:26.433Z,7.00
2018-12-21T08:34:01.752Z,7.00
2018-12-21T08:36:39.357Z,7.00
2018-12-21T08:39:14.755Z,7.00
2018-12-21T08:42:04.403Z,7.00
2018-12-21T08:47:39.294Z,7.10
2018-12-21T08:50:31.239Z,7.10
2018-12-21T08:56:08.886Z,7.10
2018-12-21T08:58:49.740Z,7.10
2018-12-21T09:01:25.805Z,7.10
2018-12-21T09:04:14.084Z,7.10
2018-12-21T09:10:07.743Z,7.20
2018-12-21T09:19:02.264Z,7.20
2018-12-21T09:21:50.104Z,7.20
2018-12-21T09:24:47.543Z,7.30
2018-12-21T09:27:40.977Z,7.30
2018-12-21T09:30:29.263Z,7.30
2018-12-21T09:36:25.533Z,7.30
2018-12-21T09:39:15.917Z,7.30
2018-12-21T09:45:23.374Z,7.40
2018-12-21T09:48:06.043Z,7.40
2018-12-21T09:51:01.604Z,7.40
2018-12-21T10:02:21.422Z,7.30
2018-12-21T10:08:10.580Z,7.30
2018-12-21T10:10:58.083Z,7.30
2018-12-21T10:13:40.783Z,7.30
2018-12-21T10:16:25.845Z,7.40
2018-12-21T10:19:06.984Z,7.30
2018-12-21T10:21:58.984Z,7.30
2018-12-21T10:24:41.445Z,7.30
2018-12-21T10:27:28.234Z,7.30
2018-12-21T10:30:09.306Z,7.30
2018-12-21T10:32:46.964Z,7.30
2018-12-21T10:35:21.277Z,7.30
2018-12-21T10:38:00.760Z,7.30
2018-12-21T10:44:00.687Z,7.30
2018-12-21T10:49:55.804Z,7.40
2018-12-21T10:52:48.905Z,7.40
2018-12-21T10:58:43.329Z,7.40
2018-12-21T11:01:35.389Z,7.40
2018-12-21T11:07:27.492Z,7.50
2018-12-21T11:28:13.336Z,7.60
2018-12-21T11:31:07.295Z,7.60
2018-12-21T11:37:01.733Z,7.60
2018-12-21T11:42:58.469Z,7.70
2018-12-21T12:04:05.598Z,7.70
2018-12-21T12:10:03.993Z,7.80
2018-12-21T12:15:58.411Z,7.80
2018-12-21T12:27:56.113Z,7.80
2018-12-21T12:30:53.803Z,7.80
2018-12-21T12:36:48.810Z,7.80
2018-12-21T12:42:36.296Z,7.80
2018-12-21T12:45:18.941Z,7.90
2018-12-21T12:48:11.843Z,7.90
2018-12-21T12:51:07.113Z,7.90
2018-12-21T12:53:47.811Z,7.90
2018-12-21T12:56:33.202Z,8.00
2018-12-21T13:02:22.350Z,8.00
2018-12-21T13:07:57.750Z,8.00
2018-12-21T13:10:37.116Z,8.00
2018-12-21T13:13:13.096Z,8.00
2018-12-21T13:15:49.839Z,8.10
2018-12-21T13:18:25.866Z,8.10
2018-12-21T13:21:02.327Z,8.10
2018-12-21T13:23:37.621Z,8.10
2018-12-21T13:26:21.188Z,8.10
2018-12-21T13:29:02.105Z,8.10
2018-12-21T13:31:42.617Z,8.10
2018-12-21T13:34:19.918Z,8.10
2018-12-21T13:37:02.550Z,8.20
2018-12-21T13:39:39.147Z,8.20
2018-12-21T13:42:17.641Z,8.30
2018-12-21T13:44:58.553Z,8.30
2018-12-21T13:47:35.733Z,8.30
2018-12-21T13:50:14.346Z,8.30
2018-12-21T13:52:49.323Z,8.40
2018-12-21T13:55:23.534Z,8.40
2018-12-21T13:57:59.648Z,8.40
2018-12-21T14:00:35.598Z,8.50
2018-12-21T14:03:15.185Z,8.50
2018-12-21T14:05:50.599Z,8.50
2018-12-21T14:08:26.480Z,8.60
2018-12-21T14:11:11.206Z,8.60
2018-12-21T14:13:53.208Z,8.70
2018-12-21T14:16:32.595Z,8.70
2018-12-21T14:19:20.578Z,8.70
2018-12-21T14:22:08.743Z,8.80
2018-12-21T14:27:49.324Z,8.90
2018-12-21T14:30:30.594Z,9.00
2018-12-21T14:33:12.837Z,9.00
2018-12-21T14:35:59.642Z,9.10
2018-12-21T14:38:49.147Z,9.20
2018-12-21T14:41:46.919Z,9.30
2018-12-21T14:44:31.571Z,9.30
2018-12-21T14:47:25.265Z,9.40
2018-12-21T14:50:11.392Z,9.40
2018-12-21T15:01:47.692Z,9.60
2018-12-21T15:04:39.457Z,9.60
2018-12-21T15:07:26.193Z,9.60
2018-12-21T15:10:11.348Z,9.70
2018-12-21T15:12:58.266Z,9.70
2018-12-21T15:15:45.208Z,9.80
2018-12-21T15:21:37.637Z,10.00
2018-12-21T15:24:24.055Z,10.10
2018-12-21T15:27:09.057Z,10.40
2018-12-21T15:32:56.103Z,10.70
2018-12-21T15:35:50.805Z,10.90
2018-12-21T15:38:34.718Z,11.10
2018-12-21T15:41:17.682Z,11.30
2018-12-21T15:44:06.713Z,11.40
2018-12-21T15:47:08.811Z,11.50
2018-12-21T15:52:49.355Z,11.60
2018-12-21T15:55:41.463Z,11.70
2018-12-21T16:10:39.124Z,12.00
2018-12-21T16:13:14.401Z,12.00
2018-12-21T16:15:56.146Z,11.90
2018-12-21T16:18:45.383Z,12.00
2018-12-21T16:21:24.163Z,11.90
2018-12-21T16:45:21.074Z,12.20
2018-12-21T16:48:05.957Z,12.20
2018-12-21T17:06:11.283Z,12.10
2018-12-21T17:17:58.534Z,12.00
2018-12-21T17:45:12.171Z,11.90
2018-12-21T17:51:05.988Z,11.80
2018-12-21T18:03:14.095Z,11.90
2018-12-21T18:45:47.149Z,11.50
2018-12-21T18:48:23.842Z,11.50
2018-12-21T18:51:12.600Z,11.50
2018-12-21T19:00:02.826Z,11.00
2018-12-21T20:37:17.057Z,10.30
2018-12-21T20:52:26.398Z,10.30
2018-12-21T21:04:22.966Z,10.30
2018-12-21T21:46:54.425Z,9.50
2018-12-21T21:52:43.393Z,9.50
2018-12-21T21:55:32.732Z,9.40
2018-12-21T21:58:26.635Z,9.30
2018-12-21T22:04:08.408Z,9.20
2018-12-21T22:09:39.952Z,9.20
2018-12-21T22:12:23.635Z,9.10
2018-12-21T22:15:18.117Z,9.10
2018-12-21T22:18:06.177Z,9.00
2018-12-21T22:21:03.619Z,9.00
2018-12-21T22:26:49.983Z,9.00
2018-12-21T22:29:34.000Z,9.00
2018-12-21T22:38:32.578Z,8.80
2018-12-21T22:41:20.199Z,8.70
2018-12-21T22:44:10.581Z,8.60
2018-12-21T22:52:42.750Z,8.40
2018-12-21T22:55:28.924Z,8.40
2018-12-21T22:58:23.287Z,8.40
2018-12-21T23:04:17.929Z,8.40
2018-12-21T23:07:11.972Z,8.40
2018-12-21T23:09:54.176Z,8.40
2018-12-21T23:12:39.989Z,8.40
2018-12-21T23:18:26.416Z,8.40
2018-12-21T23:21:02.070Z,8.40
2018-12-21T23:23:38.463Z,8.40
2018-12-21T23:29:23.339Z,8.40
2018-12-21T23:32:06.562Z,8.40
2018-12-21T23:34:44.027Z,8.40
2018-12-21T23:37:19.149Z,8.40
2018-12-21T23:39:59.300Z,8.40
2018-12-21T23:42:52.922Z,8.40
2018-12-21T23:45:38.764Z,8.30
2018-12-21T23:48:23.874Z,8.30
2018-12-21T23:51:10.887Z,8.30
2018-12-21T23:53:52.232Z,8.30
2018-12-21T23:56:33.264Z,8.30
2018-12-21T23:59:28.944Z,8.40
